Time;durP1;ratioP1;P1;durP2;ratioP2;P2;SDS_P1;SDS_P2;PMS_P1;PMS_P2;Temp;Humidity;BMP_temperature;BMP_pressure;BME280_temperature;BME280_humidity;BME280_pressure;Samples;Min_cycle;Max_cycle;Signal;HPM_P1;HPM_P2
2022/12/22 03:25:53;;;;;;;11.50;6.30;;;;;;;9.42;68.70;100822.79;105698;1305;21959;-62
2022/12/22 03:28:20;;;;;;;11.40;6.50;;;;;;;9.45;68.80;100822.95;105651;1306;21970;-61
2022/12/22 03:30:52;;;;;;;11.30;6.50;;;;;;;9.47;69.11;100816.29;105767;1300;21975;-63
2022/12/22 03:33:18;;;;;;;13.70;6.60;;;;;;;9.52;69.16;100813.48;105741;1305;21994;-62
2022/12/22 03:35:43;;;;;;;12.80;7.50;;;;;;;9.62;68.89;100814.53;105702;1304;21966;-63
2022/12/22 03:38:09;;;;;;;13.60;7.30;;;;;;;9.63;68.91;100810.48;105714;1306;22051;-63
2022/12/22 03:40:35;;;;;;;10.20;6.20;;;;;;;9.62;69.05;100808.22;105723;1306;22011;-61
2022/12/22 03:48:31;;;;;;;13.90;6.30;;;;;;;9.76;68.41;100801.19;105627;1305;21976;-63
2022/12/22 03:50:57;;;;;;;10.40;4.90;;;;;;;9.82;68.43;100798.72;105692;1306;22839;-62
2022/12/22 03:53:22;;;;;;;9.30;5.60;;;;;;;9.86;68.04;100795.21;105683;1306;21973;-61
2022/12/22 03:55:48;;;;;;;10.40;6.00;;;;;;;9.86;67.95;100794.15;105715;1306;21962;-61
2022/12/22 03:58:14;;;;;;;10.90;5.60;;;;;;;9.72;68.11;100793.30;105699;1306;21971;-62
2022/12/22 04:00:40;;;;;;;10.80;5.40;;;;;;;9.64;68.34;100790.00;105713;1305;21954;-62
2022/12/22 04:03:07;;;;;;;10.80;5.00;;;;;;;9.62;68.42;100789.64;105708;1305;21967;-62
2022/12/22 04:05:33;;;;;;;9.50;5.00;;;;;;;9.60;68.48;100791.40;105686;1306;21961;-63
2022/12/22 04:07:59;;;;;;;8.20;4.90;;;;;;;9.60;68.17;100788.42;105689;1306;21963;-62
2022/12/22 04:13:09;;;;;;;7.80;4.80;;;;;;;9.69;67.89;100790.69;105757;1306;21954;-62
2022/12/22 04:15:34;;;;;;;9.50;5.20;;;;;;;9.66;67.85;100793.50;105692;1306;21963;-62
2022/12/22 04:18:00;;;;;;;9.10;5.20;;;;;;;9.58;68.26;100797.54;105680;1306;21967;-64
2022/12/22 04:20:29;;;;;;;11.60;5.30;;;;;;;9.57;68.28;100798.75;105757;1305;21971;-63
2022/12/22 04:22:55;;;;;;;9.30;5.00;;;;;;;9.74;67.82;100802.92;105697;1306;21970;-63
2022/12/22 04:25:21;;;;;;;8.40;4.70;;;;;;;9.78;67.56;100803.80;105776;1306;21970;-62
2022/12/22 04:27:48;;;;;;;10.50;5.20;;;;;;;9.76;67.41;100800.13;105786;1306;22221;-63
2022/12/22 04:30:14;;;;;;;13.30;6.20;;;;;;;9.42;68.52;100800.88;105722;1304;21978;-63
2022/12/22 04:32:39;;;;;;;10.90;5.20;;;;;;;9.34;69.05;100799.66;105678;1302;21974;-65
2022/12/22 04:35:06;;;;;;;10.80;6.30;;;;;;;9.25;69.57;100801.77;105712;1306;21971;-62
2022/12/22 04:37:32;;;;;;;13.00;6.00;;;;;;;9.21;69.65;100800.20;105830;1306;22427;-61
2022/12/22 04:39:57;;;;;;;11.00;5.60;;;;;;;9.20;69.77;100794.06;105576;1304;21967;-62
2022/12/22 04:42:23;;;;;;;10.60;5.90;;;;;;;9.15;69.96;100791.25;105716;1306;21974;-62
2022/12/22 04:44:49;;;;;;;10.70;6.30;;;;;;;9.09;70.32;100792.31;105819;1306;22033;-63
2022/12/22 04:47:15;;;;;;;9.60;5.50;;;;;;;9.05;70.38;100793.70;105823;1306;21959;-63
2022/12/22 04:49:40;;;;;;;10.40;5.60;;;;;;;9.00;70.64;100794.40;105649;1308;21958;-61
2022/12/22 04:52:06;;;;;;;13.10;6.60;;;;;;;8.99;70.62;100797.91;105761;1306;21968;-62
2022/12/22 04:54:32;;;;;;;11.90;7.20;;;;;;;8.99;70.44;100796.50;105734;1306;21975;-61
2022/12/22 04:56:57;;;;;;;10.20;6.00;;;;;;;8.94;70.84;100792.30;105721;1305;21964;-63
2022/12/22 04:59:23;;;;;;;9.00;5.80;;;;;;;8.98;70.61;100791.77;105836;1305;22202;-62
2022/12/22 05:01:49;;;;;;;10.50;5.70;;;;;;;9.01;70.54;100791.27;105638;1306;21964;-63
2022/12/22 05:04:15;;;;;;;12.80;6.10;;;;;;;9.06;70.55;100790.55;105785;1301;22011;-63
2022/12/22 05:06:41;;;;;;;10.50;6.10;;;;;;;9.11;70.42;100791.60;105737;1306;21967;-63
2022/12/22 05:09:09;;;;;;;11.90;6.20;;;;;;;9.14;70.45;100787.92;105752;1306;21963;-62
2022/12/22 05:11:35;;;;;;;11.20;6.30;;;;;;;9.15;70.33;100786.52;105760;1301;21970;-63
2022/12/22 05:14:01;;;;;;;16.60;9.00;;;;;;;9.07;70.62;100789.33;105784;1305;21964;-63
2022/12/22 05:16:27;;;;;;;14.10;8.00;;;;;;;9.10;70.26;100788.27;105754;1306;21980;-64
2022/12/22 05:18:53;;;;;;;14.60;6.90;;;;;;;9.09;70.41;100785.12;105720;1306;21981;-63
2022/12/22 05:21:21;;;;;;;18.50;8.60;;;;;;;9.11;70.42;100787.75;105942;1303;21957;-64
2022/12/22 05:23:47;;;;;;;17.90;7.90;;;;;;;9.17;70.31;100784.42;105830;1306;21966;-63
2022/12/22 05:26:13;;;;;;;15.90;6.50;;;;;;;9.24;70.07;100789.50;105778;1302;21975;-64
2022/12/22 05:28:40;;;;;;;12.70;6.40;;;;;;;9.25;70.15;100793.89;105773;1306;21972;-65
2022/12/22 05:31:11;;;;;;;15.60;7.30;;;;;;;9.27;70.05;100799.14;105824;1306;21964;-63
2022/12/22 05:33:36;;;;;;;11.10;5.70;;;;;;;9.23;70.26;100801.59;105791;1299;21972;-65
2022/12/22 05:36:02;;;;;;;13.10;6.50;;;;;;;9.26;70.38;100797.57;105732;1306;21960;-64
2022/12/22 05:38:28;;;;;;;11.40;6.00;;;;;;;9.29;70.31;100797.73;105842;1304;22066;-64
2022/12/22 05:40:54;;;;;;;12.30;6.10;;;;;;;9.34;70.24;100802.46;105930;1299;21971;-63
2022/12/22 05:43:20;;;;;;;11.80;5.50;;;;;;;9.34;70.03;100804.90;105789;1306;21974;-63
2022/12/22 05:45:45;;;;;;;12.00;5.60;;;;;;;9.33;70.14;100807.70;105782;1301;21983;-63
2022/12/22 05:48:11;;;;;;;12.90;6.50;;;;;;;9.31;70.11;100814.02;105806;1306;21964;-62
2022/12/22 05:50:37;;;;;;;11.80;6.30;;;;;;;9.36;70.01;100817.52;105759;1306;21957;-64
2022/12/22 05:53:05;;;;;;;9.00;4.90;;;;;;;9.36;69.83;100814.72;105732;1306;21952;-61
2022/12/22 05:55:31;;;;;;;10.80;5.40;;;;;;;9.33;69.92;100816.13;105722;1303;21979;-62
2022/12/22 05:58:00;;;;;;;8.90;6.00;;;;;;;9.30;69.94;100815.25;104997;1305;1002480;-61
2022/12/22 06:00:27;;;;;;;10.90;5.90;;;;;;;9.27;69.96;100817.35;105728;1306;21963;-61
2022/12/22 06:02:53;;;;;;;8.60;5.50;;;;;;;9.21;70.03;100817.01;105819;1306;22023;-62
2022/12/22 06:05:18;;;;;;;10.20;5.30;;;;;;;9.20;70.23;100818.93;105777;1306;21968;-65
2022/12/22 06:07:45;;;;;;;8.90;5.10;;;;;;;9.23;70.40;100819.63;105795;1301;21990;-61
2022/12/22 06:10:11;;;;;;;15.70;6.70;;;;;;;9.27;70.50;100817.00;105730;1305;22005;-65
2022/12/22 06:12:38;;;;;;;16.90;10.00;;;;;;;9.29;70.80;100815.95;105820;1306;21977;-62
2022/12/22 06:15:05;;;;;;;23.30;13.10;;;;;;;9.35;70.65;100820.14;105811;1306;21953;-64
2022/12/22 06:17:30;;;;;;;24.20;14.40;;;;;;;9.38;70.64;100824.52;105787;1304;22051;-61
2022/12/22 06:19:57;;;;;;;13.70;8.20;;;;;;;9.40;70.61;100820.68;105767;1305;21971;-65
2022/12/22 06:22:23;;;;;;;14.00;6.80;;;;;;;9.39;70.47;100813.50;105810;1306;21980;-61
2022/12/22 06:24:48;;;;;;;8.30;5.70;;;;;;;9.41;70.46;100816.65;105731;1306;22006;-60
2022/12/22 06:27:14;;;;;;;8.80;5.10;;;;;;;9.42;70.39;100814.90;105658;1306;22428;-64
2022/12/22 06:29:40;;;;;;;8.00;4.10;;;;;;;9.47;70.29;100819.27;105807;1306;21959;-64
2022/12/22 06:32:06;;;;;;;7.10;3.70;;;;;;;9.56;70.05;100820.66;105746;1306;21961;-61
2022/12/22 06:34:31;;;;;;;5.60;3.90;;;;;;;9.57;70.30;100824.69;105792;1306;22021;-62
2022/12/22 06:36:57;;;;;;;10.20;4.00;;;;;;;9.58;70.26;100824.51;105735;1306;21977;-64
2022/12/22 06:39:23;;;;;;;6.50;3.60;;;;;;;9.59;70.23;100826.63;105736;1306;22926;-64
2022/12/22 06:44:35;;;;;;;9.20;3.70;;;;;;;9.59;70.16;100826.80;105811;1306;21975;-61
2022/12/22 06:47:01;;;;;;;9.20;3.50;;;;;;;9.60;70.14;100826.27;105686;1306;22028;-64
2022/12/22 06:49:26;;;;;;;9.70;3.60;;;;;;;9.64;69.91;100824.86;105804;1306;23086;-61
2022/12/22 06:51:52;;;;;;;8.40;3.80;;;;;;;9.60;69.93;100826.62;105673;1301;21963;-64
2022/12/22 06:54:18;;;;;;;7.00;3.40;;;;;;;9.65;69.90;100825.05;105750;1306;21966;-61
2022/12/22 06:56:43;;;;;;;8.20;3.70;;;;;;;9.70;70.15;100824.52;105764;1306;21968;-64
2022/12/22 06:59:09;;;;;;;8.20;3.60;;;;;;;9.77;70.34;100823.63;105731;1306;21960;-63
2022/12/22 13:05:35;;;;;;;6.10;3.10;;;;;;;8.86;100.00;100678.61;105644;1304;548393;-68
2022/12/22 13:08:18;;;;;;;7.40;2.70;;;;;;;11.95;88.93;100662.41;105839;1307;21974;-68
2022/12/22 13:10:52;;;;;;;7.40;2.40;;;;;;;12.28;83.91;100656.36;105902;1306;21966;-60
2022/12/22 13:13:24;;;;;;;4.90;2.10;;;;;;;12.43;81.81;100654.73;105663;1306;21960;-68
2022/12/22 13:15:59;;;;;;;3.80;1.50;;;;;;;12.41;81.13;100649.48;105663;1307;22031;-68
2022/12/22 13:18:27;;;;;;;3.30;1.40;;;;;;;12.55;80.30;100651.89;105772;1303;221215;-69
2022/12/22 13:20:56;;;;;;;6.00;1.60;;;;;;;12.74;79.62;100649.83;106023;1303;21978;-60
2022/12/22 13:23:22;;;;;;;8.00;2.30;;;;;;;12.83;78.44;100648.09;105988;1303;21944;-68
2022/12/22 13:25:52;;;;;;;8.50;2.00;;;;;;;12.94;78.62;100650.89;105698;1303;21974;-60
2022/12/22 13:28:22;;;;;;;5.00;1.60;;;;;;;12.98;77.21;100646.08;106108;1303;22135;-69
2022/12/22 13:30:48;;;;;;;7.10;2.40;;;;;;;12.99;75.89;100642.71;106065;1303;21977;-69
2022/12/22 13:33:15;;;;;;;13.50;3.90;;;;;;;13.07;76.11;100638.67;106035;1303;21963;-61
2022/12/22 13:35:41;;;;;;;5.80;2.40;;;;;;;13.10;75.46;100636.52;106010;1304;21963;-60
2022/12/22 13:38:43;;;;;;;10.20;4.30;;;;;;;13.06;74.73;100634.29;105258;1303;1002487;-60
2022/12/22 13:41:17;;;;;;;6.10;2.80;;;;;;;13.16;74.46;100625.66;105563;1303;22267;-60
2022/12/22 13:43:44;;;;;;;3.60;1.70;;;;;;;13.15;74.53;100625.33;106098;1303;21960;-68
2022/12/22 13:46:10;;;;;;;7.30;2.10;;;;;;;13.16;74.28;100626.53;106052;1301;22178;-69
2022/12/22 13:48:38;;;;;;;3.70;1.60;;;;;;;13.24;73.51;100620.05;105719;1304;21957;-61
2022/12/22 13:51:08;;;;;;;4.20;1.90;;;;;;;13.21;72.66;100619.22;105987;1303;21968;-68
2022/12/22 13:53:39;;;;;;;4.90;1.90;;;;;;;13.19;72.43;100614.68;106016;1303;21962;-62
2022/12/22 13:56:12;;;;;;;3.40;1.40;;;;;;;13.20;72.63;100614.65;106048;1303;22207;-69
2022/12/22 13:58:39;;;;;;;6.60;2.00;;;;;;;13.23;72.31;100613.73;106050;1303;23126;-68
2022/12/22 14:01:08;;;;;;;4.80;1.80;;;;;;;13.22;72.15;100613.39;105985;1303;21976;-61
2022/12/22 14:03:33;;;;;;;3.60;1.60;;;;;;;13.22;72.14;100613.58;105980;1303;22007;-68
2022/12/22 14:05:59;;;;;;;2.90;1.40;;;;;;;13.22;72.27;100610.75;105992;1302;22024;-68
2022/12/22 14:08:25;;;;;;;6.00;2.30;;;;;;;13.26;72.82;100608.91;106079;1303;21967;-60
2022/12/22 14:10:50;;;;;;;6.00;2.50;;;;;;;13.27;72.10;100607.98;106059;1303;21963;-68
2022/12/22 14:13:22;;;;;;;4.40;2.00;;;;;;;13.29;71.68;100609.89;105823;1306;21962;-60
2022/12/22 14:15:48;;;;;;;3.60;1.80;;;;;;;13.30;71.31;100608.47;106047;1306;22090;-62
2022/12/22 14:18:20;;;;;;;5.10;1.90;;;;;;;13.29;71.24;100606.02;105697;1306;22868;-68
2022/12/22 14:20:46;;;;;;;4.20;2.10;;;;;;;13.29;71.46;100600.55;106015;1305;21975;-62
2022/12/22 14:23:11;;;;;;;8.40;2.80;;;;;;;13.31;71.75;100602.98;105711;1306;22927;-68
2022/12/22 14:25:39;;;;;;;6.30;2.50;;;;;;;13.32;71.65;100602.08;106095;1304;21963;-62
2022/12/22 14:28:07;;;;;;;6.60;3.70;;;;;;;13.32;71.68;100598.90;106000;1306;21966;-68
2022/12/22 14:30:37;;;;;;;28.70;15.30;;;;;;;13.32;71.64;100602.27;106017;1305;21984;-68
2022/12/22 14:33:22;;;;;;;10.50;5.70;;;;;;;13.29;71.88;100603.20;106023;1305;22013;-68
2022/12/22 14:35:48;;;;;;;5.00;3.00;;;;;;;13.30;72.18;100599.14;105984;1296;22107;-61
2022/12/22 14:38:23;;;;;;;6.50;3.40;;;;;;;13.33;71.70;100600.83;105978;1304;21959;-59
2022/12/22 14:40:49;;;;;;;38.50;21.20;;;;;;;13.32;71.43;100598.38;105987;1306;21963;-60
2022/12/22 14:43:15;;;;;;;17.70;12.10;;;;;;;13.27;71.40;100600.41;105970;1304;21958;-69
2022/12/22 14:45:40;;;;;;;12.50;7.90;;;;;;;13.22;71.30;100595.77;105931;1302;22032;-60
2022/12/22 14:48:07;;;;;;;6.80;3.40;;;;;;;13.17;71.34;100597.27;105854;1304;21958;-68
2022/12/22 14:50:33;;;;;;;14.40;8.20;;;;;;;13.21;71.34;100592.80;105996;1304;22320;-68
2022/12/22 14:53:01;;;;;;;18.70;11.50;;;;;;;13.21;70.95;100596.67;105663;1306;21963;-69
2022/12/22 14:55:36;;;;;;;72.90;54.30;;;;;;;13.20;71.48;100600.39;105992;1306;21964;-60
2022/12/22 14:58:08;;;;;;;623.00;178.80;;;;;;;13.20;70.95;100599.69;105782;1298;21978;-61
2022/12/22 15:00:38;;;;;;;41.80;20.00;;;;;;;13.25;71.12;100600.63;106023;1305;21966;-69
2022/12/22 15:03:31;;;;;;;19.60;11.80;;;;;;;13.29;71.02;100601.44;105952;1306;21951;-70
2022/12/22 15:06:31;;;;;;;15.40;9.90;;;;;;;13.29;70.90;100600.02;105907;1306;21973;-61
2022/12/22 15:09:12;;;;;;;8.30;4.60;;;;;;;13.27;70.54;100597.08;106160;1304;21964;-60
2022/12/22 15:11:47;;;;;;;7.80;4.30;;;;;;;13.22;69.82;100593.13;106002;1306;21962;-60
2022/12/22 15:14:21;;;;;;;8.30;3.60;;;;;;;13.18;69.50;100591.26;105829;1306;21964;-60
2022/12/22 15:16:47;;;;;;;9.80;3.30;;;;;;;13.19;69.62;100591.42;105889;1306;21957;-69
2022/12/22 15:19:16;;;;;;;6.40;3.00;;;;;;;13.16;69.39;100586.72;105798;1306;21964;-60
2022/12/22 15:21:41;;;;;;;6.10;2.80;;;;;;;13.18;69.77;100586.69;106087;1306;21962;-61
2022/12/22 15:24:11;;;;;;;8.30;3.60;;;;;;;13.23;69.82;100586.75;106112;1306;21964;-69
2022/12/22 15:26:37;;;;;;;6.10;2.70;;;;;;;13.28;70.14;100588.41;106125;1306;21964;-68
2022/12/22 15:29:02;;;;;;;7.60;3.00;;;;;;;13.31;69.92;100590.30;106106;1302;21958;-67
2022/12/22 15:31:28;;;;;;;5.60;2.70;;;;;;;13.23;69.41;100589.92;106014;1305;22035;-66
2022/12/22 15:33:54;;;;;;;7.10;3.10;;;;;;;13.27;69.17;100591.44;106028;1304;21964;-67
2022/12/22 15:36:20;;;;;;;6.90;3.50;;;;;;;13.29;69.43;100589.29;106086;1306;21959;-66
2022/12/22 15:38:45;;;;;;;9.40;3.50;;;;;;;13.29;69.69;100592.98;106026;1306;21969;-66
2022/12/22 15:41:11;;;;;;;7.30;3.10;;;;;;;13.31;69.51;100596.47;106097;1306;21954;-61
2022/12/22 15:43:37;;;;;;;5.60;2.60;;;;;;;13.34;69.51;100595.35;106024;1301;23259;-66
2022/12/22 15:46:04;;;;;;;6.20;3.10;;;;;;;13.26;68.88;100597.63;106258;1306;21953;-60
2022/12/22 15:48:31;;;;;;;10.90;5.30;;;;;;;13.31;69.54;100596.28;105894;1306;21959;-66
2022/12/22 15:50:57;;;;;;;45.40;30.90;;;;;;;13.34;69.43;100597.63;106116;1306;22215;-66
2022/12/22 15:53:23;;;;;;;77.30;65.20;;;;;;;13.32;69.06;100598.21;106008;1306;21953;-66
2022/12/22 15:55:51;;;;;;;27.70;19.20;;;;;;;13.27;68.73;100597.95;106133;1306;21960;-66
2022/12/22 15:58:18;;;;;;;38.10;25.00;;;;;;;13.29;69.28;100597.05;106071;1306;22010;-60
2022/12/22 16:00:44;;;;;;;71.90;50.90;;;;;;;13.29;69.23;100596.16;106048;1306;21964;-60
2022/12/22 16:03:10;;;;;;;26.90;19.40;;;;;;;13.32;69.44;100593.45;106020;1305;21965;-60
2022/12/22 16:05:36;;;;;;;12.10;7.70;;;;;;;13.30;69.17;100590.13;106008;1306;21955;-65
2022/12/22 16:08:02;;;;;;;13.70;8.10;;;;;;;13.29;68.93;100591.05;106094;1306;23715;-60
2022/12/22 16:10:30;;;;;;;56.60;38.10;;;;;;;13.29;68.91;100588.92;105712;1306;21961;-61
2022/12/22 16:13:01;;;;;;;38.40;28.30;;;;;;;13.30;69.01;100587.31;105892;1304;21967;-60
2022/12/22 22:14:33;;;;;;;30.50;16.60;;;;;;;7.74;100.00;100491.68;105195;1302;550587;-60
2022/12/22 22:17:23;;;;;;;25.70;15.50;;;;;;;10.71;97.80;100468.91;105453;1313;21987;-65
2022/12/22 22:19:50;;;;;;;20.10;10.70;;;;;;;11.17;92.40;100462.05;105441;1313;21965;-60
2022/12/22 22:22:16;;;;;;;14.70;10.60;;;;;;;11.39;89.62;100451.38;105886;1313;23406;-60
2022/12/22 22:24:42;;;;;;;11.40;8.10;;;;;;;11.52;87.83;100448.91;105544;1300;21987;-65
2022/12/22 22:27:08;;;;;;;15.00;7.40;;;;;;;11.62;86.49;100446.13;105304;1309;389686;-61
2022/12/22 22:29:34;;;;;;;15.20;7.90;;;;;;;11.73;85.19;100448.06;105613;1309;21982;-62
2022/12/22 22:31:59;;;;;;;16.90;7.80;;;;;;;11.82;84.24;100446.16;105618;1309;22008;-60
2022/12/22 22:34:25;;;;;;;15.10;7.80;;;;;;;11.88;83.35;100447.65;105626;1305;21975;-65
2022/12/22 22:36:50;;;;;;;12.40;7.00;;;;;;;11.89;82.47;100442.53;105631;1309;21973;-65
2022/12/22 22:39:16;;;;;;;13.80;7.00;;;;;;;11.94;81.92;100440.34;105608;1306;21970;-65
2022/12/22 22:41:42;;;;;;;12.60;7.10;;;;;;;11.91;81.49;100439.88;105615;1302;21957;-65
2022/12/22 22:44:07;;;;;;;15.50;8.00;;;;;;;11.90;81.67;100435.48;105595;1307;21974;-59
2022/12/22 22:46:33;;;;;;;12.60;6.20;;;;;;;11.98;81.00;100433.09;105626;1306;21967;-59
2022/12/22 22:49:00;;;;;;;13.70;6.30;;;;;;;12.04;80.44;100431.94;105562;1301;23084;-64
2022/12/22 22:51:26;;;;;;;15.00;7.00;;;;;;;12.07;80.06;100432.77;105660;1294;21957;-64
2022/12/22 22:53:52;;;;;;;13.00;6.60;;;;;;;12.00;79.60;100435.69;105651;1306;21977;-64
2022/12/22 22:56:18;;;;;;;15.70;7.30;;;;;;;11.96;79.63;100440.65;106034;1303;21955;-64
2022/12/22 22:58:44;;;;;;;11.60;6.30;;;;;;;11.94;79.44;100440.52;106113;1304;21968;-59
2022/12/22 23:01:10;;;;;;;12.20;6.60;;;;;;;11.90;79.38;100434.79;106067;1303;21964;-60
2022/12/22 23:03:36;;;;;;;16.80;8.20;;;;;;;11.80;79.55;100430.53;106103;1303;21960;-59
2022/12/22 23:06:03;;;;;;;13.80;7.90;;;;;;;11.84;79.09;100427.16;106031;1303;21954;-59
2022/12/22 23:08:29;;;;;;;22.10;12.40;;;;;;;11.79;78.72;100425.30;106058;1303;22274;-60
2022/12/22 23:10:56;;;;;;;15.20;8.50;;;;;;;11.76;78.54;100428.48;106000;1303;21974;-64
2022/12/22 23:13:23;;;;;;;16.60;8.80;;;;;;;11.72;78.41;100422.77;106043;1304;21960;-60
2022/12/22 23:15:55;;;;;;;10.20;7.20;;;;;;;11.71;78.00;100418.92;106051;1303;22226;-65
2022/12/22 23:18:21;;;;;;;10.60;7.00;;;;;;;11.74;78.14;100413.95;106036;1303;21999;-61
2022/12/22 23:20:47;;;;;;;13.90;8.50;;;;;;;11.74;78.06;100411.30;106136;1295;22004;-61
2022/12/22 23:23:13;;;;;;;9.80;7.00;;;;;;;11.70;77.84;100410.30;106064;1303;21956;-60
2022/12/22 23:25:43;;;;;;;12.70;8.80;;;;;;;11.69;77.64;100412.27;106035;1292;21966;-64
2022/12/22 23:28:09;;;;;;;16.00;7.50;;;;;;;11.67;77.52;100408.27;106154;1303;21956;-61
2022/12/22 23:30:39;;;;;;;10.00;6.60;;;;;;;11.65;77.10;100405.30;106202;1303;22023;-60
2022/12/22 23:33:05;;;;;;;7.90;5.80;;;;;;;11.66;76.81;100404.77;106045;1303;22023;-62
2022/12/22 23:35:31;;;;;;;11.30;6.70;;;;;;;11.61;76.86;100401.48;105974;1303;21958;-62
2022/12/22 23:37:56;;;;;;;10.20;6.90;;;;;;;11.64;76.60;100399.69;106062;1303;21969;-64
2022/12/22 23:40:22;;;;;;;9.40;7.40;;;;;;;11.64;76.58;100394.08;105972;1302;21968;-61
2022/12/22 23:42:48;;;;;;;10.50;7.30;;;;;;;11.62;76.34;100387.60;105966;1306;21973;-61
2022/12/22 23:45:15;;;;;;;12.50;8.20;;;;;;;11.58;76.42;100388.89;105957;1306;21963;-64
2022/12/22 23:47:40;;;;;;;13.30;8.00;;;;;;;11.56;76.36;100390.86;105988;1303;21960;-60
2022/12/22 23:50:07;;;;;;;11.90;9.10;;;;;;;11.50;76.31;100391.83;105841;1303;22052;-64
2022/12/22 23:52:33;;;;;;;15.50;8.00;;;;;;;11.50;76.35;100391.48;106091;1303;22048;-64
2022/12/22 23:55:00;;;;;;;12.80;8.30;;;;;;;11.53;76.12;100396.02;106107;1302;21966;-64
2022/12/22 23:57:26;;;;;;;10.60;8.30;;;;;;;11.57;75.92;100395.41;106161;1303;21965;-64
2022/12/22 23:59:52;;;;;;;14.10;8.60;;;;;;;11.49;75.97;100398.18;106161;1303;22049;-64
